MMTJ/TIJ METAR and TAF weather

Enter ICAO airport designator
Station Type Date Time Source
MMTJ METAR 2021/02/27 20:49 UTC NOAA

MMTJ 272049Z 30011KT 10SM SKC 17/08 A2995 RMK SLP/// 57005 917 HZY


Station Type Date Time Source
MMTJ Decoded METAR 2021/02/27 20:49 UTC NOAA

Tijuana International Airport , Mexico (MMTJ) 32-33N 116-58W
Feb 27, 2021 - 03:49 PM EST / 2021.02.27 2049 UTC
Wind: from the WNW (300 degrees) at 13 MPH (11 KT):0
Visibility: 10 mile(s):0
Sky conditions: clear
Temperature: 62 F (17 C)
Dew Point: 46 F (8 C)
Relative Humidity: 55%
Pressure (altimeter): 29.95 in. Hg (1014 hPa)
Pressure tendency: 0.01 inches (0.5 hPa) lower than three hours ago
ob: MMTJ 272049Z 30011KT 10SM SKC 17/08 A2995 RMK SLP/// 57005 917 HZY
cycle: 21

Station Type Date Time Source
MMTJ TAF 2021/02/27 18:45 UTC NOAA

TAF TAF MMTJ 271642Z 2718/2824 27005KT P6SM SKC TX21/2722Z TN06/2813Z
BECMG 2720/2721 27012KT
FM280200 00000KT P6SM SKC
BECMG 2812/2813 5SM HZ
FM281800 09006KT 6SM HZ SKC
BECMG 2820/2821 09012KT

Example: see airport list